createdAt,value
2023-01-18T00:00:28.348Z,15.40
2023-01-18T00:04:30.051Z,15.27
2023-01-18T00:08:33.321Z,19.23
2023-01-18T00:12:35.021Z,17.42
2023-01-18T00:16:36.749Z,16.62
2023-01-18T00:20:38.520Z,21.60
2023-01-18T00:24:40.203Z,14.32
2023-01-18T00:28:42.391Z,20.37
2023-01-18T00:32:45.026Z,18.92
2023-01-18T00:36:48.573Z,24.83
2023-01-18T00:40:50.520Z,15.23
2023-01-18T00:44:52.268Z,15.98
2023-01-18T00:48:55.643Z,16.70
2023-01-18T00:52:58.877Z,15.02
2023-01-18T00:57:00.868Z,18.65
2023-01-18T01:01:02.679Z,17.25
2023-01-18T01:05:23.252Z,13.98
2023-01-18T01:09:27.099Z,16.80
2023-01-18T01:13:47.197Z,23.27
2023-01-18T01:18:07.629Z,17.62
2023-01-18T01:22:28.152Z,16.27
2023-01-18T01:26:29.801Z,16.02
2023-01-18T01:30:31.484Z,16.50
2023-01-18T01:34:33.309Z,17.65
2023-01-18T01:38:35.425Z,16.00
2023-01-18T01:42:37.077Z,18.48
2023-01-18T01:47:05.963Z,17.37
2023-01-18T01:51:07.844Z,17.30
2023-01-18T01:55:17.896Z,20.30
2023-01-18T01:59:20.053Z,14.15
2023-01-18T02:03:24.250Z,18.60
2023-01-18T02:07:28.876Z,20.05
2023-01-18T02:11:30.638Z,15.48
2023-01-18T02:15:54.697Z,16.35
2023-01-18T02:20:31.427Z,14.65
2023-01-18T02:24:37.504Z,14.97
2023-01-18T02:28:41.192Z,19.15
2023-01-18T02:33:01.380Z,16.98
2023-01-18T02:37:06.264Z,16.08
2023-01-18T02:41:18.963Z,14.07
2023-01-18T02:45:49.773Z,15.95
2023-01-18T02:49:51.506Z,13.98
2023-01-18T02:53:53.274Z,18.20
2023-01-18T02:58:00.484Z,17.23
2023-01-18T03:02:07.866Z,15.15
2023-01-18T03:06:10.128Z,19.83
2023-01-18T03:10:14.622Z,17.40
2023-01-18T03:14:37.574Z,15.93
2023-01-18T03:19:04.129Z,16.73
2023-01-18T03:23:36.230Z,14.70
2023-01-18T03:27:57.773Z,18.87
2023-01-18T03:32:27.555Z,15.38
2023-01-18T03:36:35.108Z,12.98
2023-01-18T03:40:37.207Z,20.20
2023-01-18T03:44:52.447Z,13.73
2023-01-18T03:48:54.329Z,18.50
2023-01-18T03:53:03.392Z,15.00
2023-01-18T03:57:17.509Z,13.60
2023-01-18T04:01:20.282Z,16.52
2023-01-18T04:05:22.006Z,15.30
2023-01-18T04:09:24.963Z,16.10
2023-01-18T04:13:26.592Z,15.40
2023-01-18T04:17:28.547Z,18.00
2023-01-18T04:21:30.218Z,15.95
2023-01-18T04:25:31.870Z,16.40
2023-01-18T04:29:33.527Z,17.12
2023-01-18T04:33:35.144Z,16.05
2023-01-18T04:37:38.133Z,13.77
2023-01-18T04:41:39.959Z,15.18
2023-01-18T04:45:41.698Z,15.52
2023-01-18T04:49:43.337Z,14.27
2023-01-18T04:53:45.544Z,16.25
2023-01-18T04:57:47.203Z,18.90
2023-01-18T05:01:48.854Z,18.25
2023-01-18T05:05:50.591Z,18.73
2023-01-18T05:09:52.350Z,21.92
2023-01-18T05:13:54.081Z,18.12
2023-01-18T05:17:55.737Z,18.35
2023-01-18T05:21:57.486Z,18.90
2023-01-18T05:25:59.432Z,22.40
2023-01-18T05:30:02.078Z,18.70
2023-01-18T05:34:03.767Z,19.77
2023-01-18T05:38:05.488Z,16.48
2023-01-18T05:42:07.167Z,18.87
2023-01-18T05:46:08.915Z,18.45
2023-01-18T05:50:10.942Z,18.77
2023-01-18T05:54:13.183Z,23.15
2023-01-18T05:58:14.860Z,20.40
2023-01-18T06:02:18.264Z,17.87
2023-01-18T06:06:19.993Z,15.50
2023-01-18T06:10:21.748Z,21.25
2023-01-18T06:14:23.393Z,17.25
2023-01-18T06:18:26.743Z,16.40
2023-01-18T06:22:28.534Z,19.92
2023-01-18T06:26:31.117Z,23.20
2023-01-18T06:30:34.352Z,18.90
2023-01-18T06:34:36.823Z,17.48
2023-01-18T06:38:38.501Z,16.05
2023-01-18T06:42:41.041Z,14.38
2023-01-18T06:46:46.104Z,19.08
2023-01-18T06:50:48.393Z,18.70
2023-01-18T06:54:50.104Z,17.15
2023-01-18T06:58:51.929Z,20.02
2023-01-18T07:02:53.656Z,25.60
2023-01-18T07:07:28.268Z,20.25
2023-01-18T07:11:31.067Z,18.62
2023-01-18T07:15:32.681Z,19.73
2023-01-18T07:19:34.818Z,20.45
2023-01-18T07:23:38.055Z,19.08
2023-01-18T07:27:43.101Z,17.05
2023-01-18T07:31:44.885Z,17.35
2023-01-18T07:35:46.542Z,18.20
2023-01-18T07:39:48.241Z,15.95
2023-01-18T07:43:49.918Z,16.37
2023-01-18T07:47:53.312Z,15.63
2023-01-18T07:51:54.937Z,16.95
2023-01-18T07:56:01.158Z,21.02
2023-01-18T08:00:03.445Z,17.27
2023-01-18T08:04:05.915Z,17.52
2023-01-18T08:08:12.789Z,17.60
2023-01-18T08:12:17.947Z,17.83
2023-01-18T08:16:20.002Z,21.10
2023-01-18T08:20:22.018Z,16.83
2023-01-18T08:24:23.754Z,19.17
2023-01-18T08:28:25.376Z,19.23
2023-01-18T08:32:27.054Z,24.20
2023-01-18T08:36:28.740Z,22.40
2023-01-18T08:40:30.626Z,29.20
2023-01-18T08:44:32.338Z,30.17
2023-01-18T08:48:34.296Z,22.77
2023-01-18T08:52:36.435Z,30.85
2023-01-18T08:56:38.155Z,28.12
2023-01-18T09:00:39.786Z,28.42
2023-01-18T09:04:42.252Z,29.37
2023-01-18T09:08:47.601Z,27.50
2023-01-18T09:12:50.046Z,30.73
2023-01-18T09:16:52.757Z,33.67
2023-01-18T09:20:54.439Z,33.75
2023-01-18T09:24:57.460Z,35.70
2023-01-18T09:28:59.155Z,32.42
2023-01-18T09:33:01.385Z,32.95
2023-01-18T09:37:03.238Z,25.60
2023-01-18T09:41:22.122Z,28.38
2023-01-18T09:45:29.726Z,29.27
2023-01-18T09:49:54.901Z,27.40
2023-01-18T09:54:08.787Z,27.50
2023-01-18T09:58:24.598Z,24.70
2023-01-18T10:02:35.847Z,27.67
2023-01-18T10:06:48.979Z,25.70
2023-01-18T10:10:57.483Z,28.70
2023-01-18T10:15:13.676Z,26.27
2023-01-18T10:19:21.562Z,32.25
2023-01-18T10:23:36.571Z,26.45
2023-01-18T10:27:55.398Z,29.60
2023-01-18T10:32:09.185Z,25.42
2023-01-18T10:36:19.540Z,26.50
2023-01-18T10:40:22.965Z,22.23
2023-01-18T10:44:24.742Z,29.17
2023-01-18T10:48:32.812Z,25.92
2023-01-18T10:52:34.469Z,25.92
2023-01-18T10:56:36.173Z,27.05
2023-01-18T11:00:37.923Z,32.17
2023-01-18T11:04:41.889Z,27.67
2023-01-18T11:08:43.942Z,29.87
2023-01-18T11:12:48.402Z,26.48
2023-01-18T11:16:59.094Z,23.75
2023-01-18T11:21:01.850Z,25.90
2023-01-18T11:25:04.169Z,28.25
2023-01-18T11:29:07.213Z,23.77
2023-01-18T11:33:18.357Z,27.62
2023-01-18T11:37:36.785Z,23.48
2023-01-18T11:41:38.584Z,24.10
2023-01-18T11:45:54.251Z,28.02
2023-01-18T11:50:20.938Z,25.88
2023-01-18T11:58:36.027Z,23.67
2023-01-18T12:02:47.929Z,21.73
2023-01-18T12:07:03.299Z,21.08
2023-01-18T12:11:38.435Z,15.70
2023-01-18T12:15:51.853Z,24.08
2023-01-18T12:20:25.540Z,23.25
2023-01-18T12:24:58.035Z,27.45
2023-01-18T12:29:24.217Z,21.10
2023-01-18T12:34:03.197Z,20.48
2023-01-18T12:38:24.685Z,20.50
2023-01-18T12:43:05.055Z,19.70
2023-01-18T12:47:39.296Z,23.85
2023-01-18T12:51:42.028Z,27.10
2023-01-18T12:55:47.216Z,20.73
2023-01-18T13:00:18.854Z,21.87
2023-01-18T13:04:44.527Z,18.62
2023-01-18T13:09:00.890Z,20.37
2023-01-18T13:13:05.804Z,20.15
2023-01-18T13:17:28.406Z,16.05
2023-01-18T13:22:11.695Z,14.95
2023-01-18T13:26:28.338Z,18.15
2023-01-18T13:30:33.230Z,14.32
2023-01-18T13:34:47.662Z,14.15
2023-01-18T13:39:07.483Z,9.32
2023-01-18T13:43:27.982Z,12.37
2023-01-18T13:47:35.850Z,13.50
2023-01-18T13:51:40.675Z,11.82
2023-01-18T13:56:00.433Z,10.43
2023-01-18T14:00:03.952Z,11.73
2023-01-18T14:04:23.519Z,10.82
2023-01-18T14:08:30.559Z,10.57
2023-01-18T14:21:15.206Z,8.25
2023-01-18T14:25:53.191Z,11.50
2023-01-18T14:30:08.039Z,9.40
2023-01-18T14:34:28.379Z,10.75
2023-01-18T14:38:30.999Z,9.20
2023-01-18T14:42:34.890Z,9.27
2023-01-18T14:46:37.113Z,6.62
2023-01-18T14:50:45.618Z,8.35
2023-01-18T14:54:55.436Z,7.55
2023-01-18T14:59:03.049Z,9.20
2023-01-18T15:03:12.855Z,7.85
2023-01-18T15:07:19.477Z,12.32
2023-01-18T15:11:24.255Z,10.13
2023-01-18T15:15:30.170Z,10.23
2023-01-18T15:19:44.033Z,9.80
2023-01-18T15:23:46.940Z,9.63
2023-01-18T15:27:53.130Z,6.35
2023-01-18T15:32:26.942Z,10.67
2023-01-18T15:36:28.827Z,10.35
2023-01-18T15:40:31.197Z,12.10
2023-01-18T15:44:47.754Z,10.65
2023-01-18T15:48:56.350Z,15.03
2023-01-18T15:53:09.743Z,9.80
2023-01-18T15:57:17.409Z,11.75
2023-01-18T16:01:22.225Z,11.00
2023-01-18T16:05:26.884Z,10.35
2023-01-18T16:09:28.658Z,10.25
2023-01-18T16:13:39.355Z,11.68
2023-01-18T16:17:43.583Z,11.27
2023-01-18T16:21:48.506Z,10.27
2023-01-18T16:25:52.828Z,12.57
2023-01-18T16:29:56.564Z,11.80
2023-01-18T16:33:58.207Z,13.50
2023-01-18T16:38:00.473Z,10.43
2023-01-18T16:42:03.065Z,7.68
2023-01-18T16:46:04.837Z,10.25
2023-01-18T16:50:16.573Z,9.13
2023-01-18T16:54:18.745Z,7.65
2023-01-18T16:58:21.288Z,8.93
2023-01-18T17:02:23.061Z,8.15
2023-01-18T17:06:26.323Z,10.55
2023-01-18T17:10:28.354Z,11.60
2023-01-18T17:14:30.024Z,7.35
2023-01-18T17:18:31.869Z,6.57
2023-01-18T17:22:33.558Z,9.80
2023-01-18T17:26:36.025Z,5.10
2023-01-18T17:30:38.137Z,7.53
2023-01-18T17:34:39.840Z,8.40
2023-01-18T17:38:41.514Z,6.45
2023-01-18T17:42:43.326Z,12.30
2023-01-18T17:46:45.072Z,9.70
2023-01-18T17:50:46.820Z,8.38
2023-01-18T17:54:48.513Z,10.73
2023-01-18T17:58:50.628Z,7.53
2023-01-18T18:02:53.562Z,9.50
2023-01-18T18:06:58.667Z,11.80
2023-01-18T18:11:00.789Z,10.80
2023-01-18T18:15:03.770Z,10.73
2023-01-18T18:19:05.869Z,14.23
2023-01-18T18:23:07.513Z,16.05
2023-01-18T18:27:09.209Z,15.18
2023-01-18T18:31:16.025Z,13.70
2023-01-18T18:35:26.446Z,13.43
2023-01-18T18:39:28.399Z,14.20
2023-01-18T18:43:30.196Z,15.38
2023-01-18T18:47:32.151Z,19.77
2023-01-18T18:51:36.883Z,16.42
2023-01-18T18:55:38.573Z,12.27
2023-01-18T18:59:40.579Z,13.13
2023-01-18T19:03:42.287Z,11.45
2023-01-18T19:07:44.436Z,11.40
2023-01-18T19:11:54.307Z,9.50
2023-01-18T19:15:56.916Z,14.45
2023-01-18T19:19:59.193Z,13.70
2023-01-18T19:24:00.887Z,10.18
2023-01-18T19:28:02.860Z,12.45
2023-01-18T19:32:05.493Z,9.75
2023-01-18T19:36:13.711Z,8.35
2023-01-18T19:40:16.533Z,12.13
2023-01-18T19:44:18.264Z,12.48
2023-01-18T19:48:19.925Z,10.30
2023-01-18T19:52:21.968Z,10.05
2023-01-18T19:56:28.933Z,11.10
2023-01-18T20:04:33.739Z,9.75
2023-01-18T20:08:35.849Z,11.93
2023-01-18T20:12:38.264Z,10.82
2023-01-18T20:16:40.058Z,9.35
2023-01-18T20:20:41.770Z,9.75
2023-01-18T20:24:44.127Z,13.27
2023-01-18T20:28:46.160Z,10.77
2023-01-18T20:32:47.880Z,9.70
2023-01-18T20:36:50.017Z,10.23
2023-01-18T20:40:54.060Z,9.63
2023-01-18T20:45:00.261Z,10.15
2023-01-18T20:49:03.356Z,8.65
2023-01-18T20:53:05.157Z,8.77
2023-01-18T20:57:06.975Z,12.88
2023-01-18T21:01:16.576Z,9.55
2023-01-18T21:05:18.307Z,9.43
2023-01-18T21:09:20.161Z,10.35
2023-01-18T21:13:22.031Z,12.27
2023-01-18T21:17:23.859Z,9.65
2023-01-18T21:21:31.265Z,11.18
2023-01-18T21:25:32.911Z,10.70
2023-01-18T21:29:34.542Z,9.27
2023-01-18T21:33:36.285Z,9.25
2023-01-18T21:37:37.975Z,11.63
2023-01-18T21:41:58.609Z,12.65
2023-01-18T21:46:00.621Z,12.25
2023-01-18T21:50:20.996Z,16.67
2023-01-18T21:54:22.673Z,13.38
2023-01-18T21:58:43.130Z,14.43
2023-01-18T22:02:44.874Z,16.08
2023-01-18T22:06:47.235Z,12.63
2023-01-18T22:10:49.013Z,12.43
2023-01-18T22:14:50.718Z,10.48
2023-01-18T22:18:52.353Z,14.50
2023-01-18T22:22:55.043Z,13.35
2023-01-18T22:26:56.806Z,13.13
2023-01-18T22:30:58.765Z,14.65
2023-01-18T22:35:00.482Z,12.27
2023-01-18T22:39:02.331Z,14.07
2023-01-18T22:43:04.165Z,13.02
2023-01-18T22:47:05.801Z,11.98
2023-01-18T22:51:10.637Z,10.48
2023-01-18T22:55:12.532Z,14.18
2023-01-18T22:59:14.217Z,11.18
2023-01-18T23:03:17.375Z,12.27
2023-01-18T23:07:19.939Z,11.52
2023-01-18T23:11:24.604Z,10.68
2023-01-18T23:15:45.212Z,11.40
2023-01-18T23:19:47.222Z,10.85
2023-01-18T23:23:48.928Z,11.63
2023-01-18T23:27:50.574Z,11.20
2023-01-18T23:31:52.221Z,12.35
2023-01-18T23:35:53.833Z,11.55
2023-01-18T23:40:14.246Z,11.45
2023-01-18T23:44:34.709Z,15.32
2023-01-18T23:48:55.180Z,13.43
2023-01-18T23:53:18.824Z,12.35
2023-01-18T23:57:20.436Z,12.95
